createdAt,value
2022-10-12T00:00:40.455Z,22.03
2022-10-12T00:04:40.413Z,22.4
2022-10-12T00:08:40.523Z,19.5
2022-10-12T00:12:40.550Z,16.07
2022-10-12T00:16:41.061Z,24.37
2022-10-12T00:20:40.429Z,21.93
2022-10-12T00:24:42.901Z,23.5
2022-10-12T00:28:40.690Z,23.3
2022-10-12T00:32:40.515Z,15.5
2022-10-12T00:36:40.561Z,28.43
2022-10-12T00:40:40.603Z,16.7
2022-10-12T00:44:39.313Z,16.07
2022-10-12T00:48:40.284Z,20.5
2022-10-12T00:52:40.888Z,11.97
2022-10-12T00:56:40.313Z,19.43
2022-10-12T01:00:40.938Z,17.27
2022-10-12T01:04:40.430Z,18.6
2022-10-12T01:08:39.557Z,13.4
2022-10-12T01:12:40.512Z,17.53
2022-10-12T01:16:40.931Z,16.2
2022-10-12T01:20:40.604Z,15.2
2022-10-12T01:24:40.415Z,18.33
2022-10-12T01:28:40.655Z,19.03
2022-10-12T01:32:40.866Z,12.73
2022-10-12T01:36:40.466Z,21.07
2022-10-12T01:40:40.469Z,20.47
2022-10-12T01:44:42.897Z,20.5
2022-10-12T01:48:40.875Z,16.47
2022-10-12T01:52:40.472Z,14.6
2022-10-12T01:56:40.551Z,19.67
2022-10-12T02:00:40.650Z,16.33
2022-10-12T02:04:40.498Z,16.77
2022-10-12T02:08:40.498Z,17.8
2022-10-12T02:12:40.599Z,13.13
2022-10-12T02:16:40.529Z,27.17
2022-10-12T02:20:40.602Z,19.63
2022-10-12T02:24:40.109Z,18.6
2022-10-12T02:28:41.046Z,15.27
2022-10-12T02:32:40.428Z,20.07
2022-10-12T02:36:40.465Z,22.57
2022-10-12T02:40:39.756Z,14.97
2022-10-12T02:44:40.600Z,12.03
2022-10-12T02:48:40.522Z,14.9
2022-10-12T02:52:40.483Z,13.97
2022-10-12T02:56:40.657Z,13.33
2022-10-12T03:00:40.514Z,16.07
2022-10-12T03:04:40.570Z,10.13
2022-10-12T03:08:40.791Z,14.67
2022-10-12T03:12:40.488Z,13.97
2022-10-12T03:16:41.017Z,13.6
2022-10-12T03:20:40.586Z,15.43
2022-10-12T03:24:40.922Z,24.53
2022-10-12T03:28:40.537Z,19.07
2022-10-12T03:32:40.495Z,14.63
2022-10-12T03:36:41.247Z,17.53
2022-10-12T03:40:40.475Z,11
2022-10-12T03:44:40.814Z,22.17
2022-10-12T03:48:41.255Z,19.7
2022-10-12T03:52:40.466Z,14.2
2022-10-12T03:56:40.476Z,16.07
2022-10-12T04:00:40.546Z,16.67
2022-10-12T04:04:40.506Z,17.63
2022-10-12T04:08:41.078Z,9.23
2022-10-12T04:12:40.821Z,14.93
2022-10-12T04:16:40.688Z,7.97
2022-10-12T04:20:40.536Z,14.2
2022-10-12T04:24:40.583Z,11.33
2022-10-12T04:28:40.610Z,15.73
2022-10-12T04:32:40.521Z,16.43
2022-10-12T04:36:40.259Z,12.07
2022-10-12T04:40:40.854Z,17.53
2022-10-12T04:44:40.669Z,15.43
2022-10-12T04:48:40.471Z,15.53
2022-10-12T04:52:40.549Z,13.2
2022-10-12T04:56:43.068Z,12.13
2022-10-12T05:00:41.006Z,20.63
2022-10-12T05:04:40.665Z,17.7
2022-10-12T05:08:40.485Z,23.87
2022-10-12T05:12:40.915Z,27.43
2022-10-12T05:16:40.485Z,15.93
2022-10-12T05:20:40.497Z,27.1
2022-10-12T05:24:40.485Z,24.23
2022-10-12T05:28:41.389Z,16.87
2022-10-12T05:32:40.940Z,13.1
2022-10-12T05:36:40.467Z,17.27
2022-10-12T05:40:40.577Z,16.8
2022-10-12T05:44:40.535Z,22.53
2022-10-12T05:48:40.447Z,20.83
2022-10-12T05:52:40.771Z,10.73
2022-10-12T05:56:40.582Z,13.53
2022-10-12T06:00:40.918Z,12.93
2022-10-12T06:04:40.541Z,24.5
2022-10-12T06:08:41.177Z,35.8
2022-10-12T06:12:41.005Z,10.5
2022-10-12T06:16:41.261Z,11.82
2022-10-12T06:20:40.466Z,12.82
2022-10-12T06:24:40.483Z,14.45
2022-10-12T06:28:40.525Z,10.05
2022-10-12T06:32:40.262Z,16.15
2022-10-12T06:36:40.427Z,10.93
2022-10-12T06:40:40.338Z,20.08
2022-10-12T06:44:41.125Z,12.57
2022-10-12T06:48:40.541Z,15.65
2022-10-12T06:52:40.751Z,10.38
2022-10-12T06:56:40.464Z,11.85
2022-10-12T07:00:40.692Z,13.6
2022-10-12T07:04:40.572Z,15.55
2022-10-12T07:08:40.540Z,8.38
2022-10-12T07:12:40.274Z,10.95
2022-10-12T07:16:40.519Z,9.75
2022-10-12T07:20:40.684Z,13.85
2022-10-12T07:24:40.630Z,10.23
2022-10-12T07:28:40.590Z,12.43
2022-10-12T07:32:40.480Z,17
2022-10-12T07:36:58.762Z,15.98
2022-10-12T07:40:41.141Z,20.65
2022-10-12T07:44:40.858Z,18.23
2022-10-12T07:48:41.788Z,15.85
2022-10-12T07:52:40.227Z,20.02
2022-10-12T07:56:40.564Z,18.08
2022-10-12T08:00:40.596Z,15.05
2022-10-12T08:04:40.312Z,13.68
2022-10-12T08:08:41.190Z,10.73
2022-10-12T08:12:40.412Z,14.43
2022-10-12T08:16:39.437Z,9.05
2022-10-12T08:20:40.505Z,16.1
2022-10-12T08:24:40.475Z,16.65
2022-10-12T08:28:40.635Z,21.5
2022-10-12T08:32:40.631Z,15.6
2022-10-12T08:36:41.223Z,12.8
2022-10-12T08:40:40.535Z,12.98
2022-10-12T08:44:40.422Z,9.57
2022-10-12T08:48:40.809Z,10.9
2022-10-12T08:52:40.687Z,11.4
2022-10-12T08:56:40.499Z,9.3
2022-10-12T09:00:40.611Z,17.7
2022-10-12T09:04:40.517Z,13.02
2022-10-12T09:08:40.780Z,15.68
2022-10-12T09:12:41.121Z,10.85
2022-10-12T09:16:40.562Z,11.73
2022-10-12T09:20:40.618Z,13.77
2022-10-12T09:24:40.444Z,14.75
2022-10-12T09:28:40.812Z,14.75
2022-10-12T09:32:40.432Z,17.45
2022-10-12T09:36:40.586Z,14.15
2022-10-12T09:40:40.453Z,16.5
2022-10-12T09:44:40.609Z,15.73
2022-10-12T09:48:44.505Z,10.27
2022-10-12T09:52:40.064Z,9.98
2022-10-12T09:56:39.993Z,18.98
2022-10-12T10:00:40.740Z,17.75
2022-10-12T10:04:40.259Z,8.38
2022-10-12T10:08:40.434Z,9.2
2022-10-12T10:12:40.549Z,12
2022-10-12T10:16:40.505Z,8.98
2022-10-12T10:20:40.553Z,14.55
2022-10-12T10:24:40.821Z,13.27
2022-10-12T10:28:40.534Z,11.68
2022-10-12T10:32:40.343Z,8.57
2022-10-12T10:36:40.496Z,9.43
2022-10-12T10:40:40.744Z,8.25
2022-10-12T10:48:40.480Z,6.95
2022-10-12T10:52:40.417Z,11.4
2022-10-12T10:56:40.782Z,13.88
2022-10-12T11:00:41.536Z,9.5
2022-10-12T11:04:40.490Z,12.65
2022-10-12T11:08:40.554Z,10.32
2022-10-12T11:12:39.979Z,8.82
2022-10-12T11:16:40.829Z,9.73
2022-10-12T11:20:40.603Z,8.5
2022-10-12T11:24:40.535Z,12.4
2022-10-12T11:28:40.523Z,5.2
2022-10-12T11:32:40.455Z,10.07
2022-10-12T11:36:51.258Z,7.87
2022-10-12T11:41:02.467Z,12.15
2022-10-12T11:44:41.101Z,7.9
2022-10-12T11:48:40.503Z,6.43
2022-10-12T11:52:40.285Z,6.93
2022-10-12T11:56:41.049Z,5.25
2022-10-12T12:00:41.601Z,6.6
2022-10-12T12:04:42.630Z,5.7
2022-10-12T12:08:40.545Z,9.63
2022-10-12T12:12:41.556Z,11.93
2022-10-12T12:16:40.504Z,7.87
2022-10-12T12:20:40.588Z,6.72
2022-10-12T12:24:40.633Z,6.95
2022-10-12T12:28:40.579Z,6.82
2022-10-12T12:32:40.877Z,7.68
2022-10-12T12:36:40.274Z,5.93
2022-10-12T12:40:40.748Z,7.85
2022-10-12T12:44:40.693Z,8.93
2022-10-12T12:48:40.476Z,9.88
2022-10-12T12:52:40.363Z,9.4
2022-10-12T12:56:41.180Z,5.25
2022-10-12T13:00:41.012Z,7.62
2022-10-12T13:04:40.592Z,8.13
2022-10-12T13:08:40.490Z,10.32
2022-10-12T13:12:40.897Z,11.35
2022-10-12T13:20:40.597Z,9.4
2022-10-12T13:24:40.976Z,5.43
2022-10-12T13:28:40.531Z,6.15
2022-10-12T13:32:40.301Z,7.03
2022-10-12T13:36:41.178Z,9.55
2022-10-12T13:40:40.645Z,7.65
2022-10-12T13:44:40.501Z,9.32
2022-10-12T13:48:58.834Z,5.8
2022-10-12T13:52:40.318Z,12.32
2022-10-12T13:56:40.511Z,6
2022-10-12T14:00:40.446Z,7.7
2022-10-12T14:04:40.661Z,12.25
2022-10-12T14:08:41.146Z,12.18
2022-10-12T14:12:40.268Z,6.85
2022-10-12T14:16:40.534Z,10.52
2022-10-12T14:20:40.761Z,6.22
2022-10-12T14:24:40.853Z,8.8
2022-10-12T14:28:40.532Z,10.5
2022-10-12T14:32:39.359Z,10.4
2022-10-12T14:36:40.530Z,9.25
2022-10-12T14:40:40.864Z,7.4
2022-10-12T14:44:40.448Z,12.48
2022-10-12T14:48:40.520Z,9.63
2022-10-12T14:52:41.170Z,6.07
2022-10-12T14:56:40.422Z,9.57
2022-10-12T15:00:40.968Z,7.75
2022-10-12T15:04:40.502Z,8.8
2022-10-12T15:08:40.914Z,8.63
2022-10-12T15:12:40.008Z,8.65
2022-10-12T15:16:40.473Z,8.38
2022-10-12T15:20:42.392Z,6.68
2022-10-12T15:24:40.542Z,9.35
2022-10-12T15:28:40.616Z,5.47
2022-10-12T15:32:41.196Z,7.4
2022-10-12T15:36:40.531Z,13.48
2022-10-12T15:40:41.032Z,6.37
2022-10-12T15:44:40.431Z,9.95
2022-10-12T15:48:40.592Z,10.43
2022-10-12T15:52:40.440Z,6.62
2022-10-12T15:56:40.520Z,11.43
2022-10-12T16:00:40.884Z,12.4
2022-10-12T16:04:40.565Z,8.32
2022-10-12T16:08:40.503Z,9.02
2022-10-12T16:12:40.595Z,6.68
2022-10-12T16:16:40.532Z,7.78
2022-10-12T16:20:40.572Z,10.3
2022-10-12T16:24:40.504Z,7.25
2022-10-12T16:28:40.607Z,14.48
2022-10-12T16:32:40.391Z,3.92
2022-10-12T16:36:41.248Z,8.77
2022-10-12T16:40:40.524Z,9.5
2022-10-12T16:44:40.554Z,11.6
2022-10-12T16:48:40.436Z,9.63
2022-10-12T16:52:40.493Z,9.9
2022-10-12T16:56:40.492Z,12.1
2022-10-12T17:00:40.685Z,10.73
2022-10-12T17:04:40.447Z,22.48
2022-10-12T17:08:41.249Z,11.15
2022-10-12T17:12:40.486Z,14.55
2022-10-12T17:16:40.986Z,11.3
2022-10-12T17:20:40.557Z,21.3
2022-10-12T17:24:40.520Z,20.27
2022-10-12T17:28:40.716Z,17.98
2022-10-12T17:32:40.485Z,9.98
2022-10-12T17:36:41.207Z,14.98
2022-10-12T17:40:40.558Z,9.73
2022-10-12T17:44:40.623Z,15.85
2022-10-12T17:48:40.729Z,15.8
2022-10-12T17:52:40.786Z,16.1
2022-10-12T17:56:40.470Z,18.65
2022-10-12T18:00:40.719Z,14.85
2022-10-12T18:04:40.997Z,18.9
2022-10-12T18:08:40.600Z,15.13
2022-10-12T18:12:40.552Z,14.75
2022-10-12T18:16:40.523Z,17.6
2022-10-12T18:20:40.795Z,13.77
2022-10-12T18:24:40.641Z,17.83
2022-10-12T18:28:40.599Z,15.48
2022-10-12T18:32:40.448Z,25.67
2022-10-12T18:36:40.322Z,13.13
2022-10-12T18:40:42.431Z,22.17
2022-10-12T18:44:40.537Z,18.33
2022-10-12T18:48:40.484Z,21.12
2022-10-12T18:52:40.530Z,21.27
2022-10-12T18:56:40.434Z,14.9
2022-10-12T19:00:40.592Z,17.2
2022-10-12T19:04:40.517Z,18.5
2022-10-12T19:08:40.708Z,13.18
2022-10-12T19:12:45.530Z,11.75
2022-10-12T19:16:40.751Z,15.48
2022-10-12T19:20:40.516Z,20.9
2022-10-12T19:24:40.569Z,23.38
2022-10-12T19:28:40.952Z,13.75
2022-10-12T19:32:40.370Z,21.05
2022-10-12T19:36:40.575Z,15.65
2022-10-12T19:40:40.761Z,22.87
2022-10-12T19:44:40.567Z,13.75
2022-10-12T19:48:40.608Z,17.9
2022-10-12T19:52:40.294Z,20.95
2022-10-12T19:56:40.273Z,21.17
2022-10-12T20:00:41.123Z,22.62
2022-10-12T20:04:40.468Z,18.27
2022-10-12T20:08:40.523Z,26.15
2022-10-12T20:12:40.745Z,16.4
2022-10-12T20:16:41.186Z,16.67
2022-10-12T20:20:41.180Z,19.7
2022-10-12T20:24:40.605Z,18.9
2022-10-12T20:28:40.590Z,18.37
2022-10-12T20:32:40.779Z,26.62
2022-10-12T20:36:41.178Z,15.93
2022-10-12T20:40:40.568Z,27.73
2022-10-12T20:44:40.661Z,17.05
2022-10-12T20:48:40.756Z,20.55
2022-10-12T20:52:40.478Z,13.48
2022-10-12T20:56:40.554Z,18.27
2022-10-12T21:00:40.613Z,20.6
2022-10-12T21:04:41.086Z,22.5
2022-10-12T21:08:41.177Z,20.03
2022-10-12T21:12:40.442Z,19.6
2022-10-12T21:16:41.024Z,18.07
2022-10-12T21:20:40.470Z,21.27
2022-10-12T21:24:40.481Z,21.67
2022-10-12T21:28:40.583Z,18.7
2022-10-12T21:32:40.526Z,22.8
2022-10-12T21:36:40.667Z,21.8
2022-10-12T21:40:40.509Z,16.75
2022-10-12T21:44:40.545Z,23.17
2022-10-12T21:48:40.539Z,13.83
2022-10-12T21:52:40.650Z,21.07
2022-10-12T21:56:40.513Z,17.53
2022-10-12T22:00:40.556Z,15.73
2022-10-12T22:04:40.460Z,19.07
2022-10-12T22:08:40.555Z,18.3
2022-10-12T22:12:40.517Z,19.17
2022-10-12T22:16:40.539Z,27.07
2022-10-12T22:20:40.478Z,16.2
2022-10-12T22:24:40.500Z,22.23
2022-10-12T22:28:40.524Z,21.57
2022-10-12T22:32:40.533Z,26.63
2022-10-12T22:36:40.390Z,24.97
2022-10-12T22:40:40.751Z,22.17
2022-10-12T22:44:40.643Z,21
2022-10-12T22:48:40.481Z,28.13
2022-10-12T22:52:40.640Z,22.63
2022-10-12T22:56:40.625Z,27.33
2022-10-12T23:00:40.799Z,22.75
2022-10-12T23:04:40.439Z,16.17
2022-10-12T23:08:40.497Z,21.93
2022-10-12T23:12:40.535Z,17.43
2022-10-12T23:16:40.431Z,21.23
2022-10-12T23:20:40.459Z,18.9
2022-10-12T23:24:40.495Z,19.97
2022-10-12T23:28:40.678Z,18.23
2022-10-12T23:32:40.489Z,25.4
2022-10-12T23:36:40.586Z,22.13
2022-10-12T23:40:40.542Z,18.63
2022-10-12T23:44:40.473Z,20.43
2022-10-12T23:48:40.619Z,31.67
2022-10-12T23:52:40.258Z,16.77
2022-10-12T23:56:41.012Z,20.53
